Terminal Aerodrome Forecast
Issued by NWS

Current Version | Previous Version | Text Only | Print | Product List | Glossary On
Versions: 1 2 3 4 5 6 7 8 9 10 11 12 13 14 15
000
FTUS44 KBMX 270533
TAFTCL
TAF
KTCL 270533Z 2706/2806 16015G25KT 4SM TSRA BKN025CB OVC100
      TEMPO 2706/2708 27020G30KT 2SM TSRA BKN008CB
     FM270900 25012KT P6SM SCT008 OVC012
     FM271500 25008KT P6SM BKN015
     FM271800 26007KT P6SM SKC
     FM280200 00000KT P6SM SKC=

USA.gov is the U.S. government's official web portal to all federal, state and local government web resources and services.